AGROMETEOROLOŠKI PORTAL

vinorodna pokrajina

Temelj dobrega kmetovanja

Pregled podatkov za lokacijo Šlovrenc, meteorološka postaja 859088

Pregled senzorjev na lokaciji

ID Ime Zadnja
vrednost
Datum in čas
meritve
(lokalni čas)
Tip
senzorja
4325 Omočenost lista (1,5 m) (U) 0 U 30.9.2022 11:00 A730WET
5084 Padavine (mm) 0 mm 30.9.2022 11:00 Generic 0.2 mm
3974 Relativna zračna vlaga (2 m) (%RH) 91 %RH 30.9.2022 11:00 50YA
3973 Temperatura (2 m) (°C) 16,6 °C 30.9.2022 11:00 50YA

Pregled podatkov zadnjih 24 ur

Zap.
št.
Datum in čas
(lokalni čas)
Šlovrenc
Omočenost
lista
(1,5
m)
Padavine Relativna
zračna
vlaga
(2
m)
Temperatura
(2
m)
1 30.9.2022 11:00 0 0 90,7 16,6
2 30.9.2022 10:30 3 0,2 89,3 16,3
3 30.9.2022 10:00 0 0 91 15,8
4 30.9.2022 09:30 1 0 95,3 15,2
5 30.9.2022 09:00 8 0,6 95,3 14,7
6 30.9.2022 08:30 0 0 91 14,6
7 30.9.2022 08:00 0 0 94,1 14
8 30.9.2022 07:30 0 0 91,4 14,2
9 30.9.2022 07:00 0 0 93,2 14,2
10 30.9.2022 06:30 0 0 93,5 14,2
11 30.9.2022 06:00 0 0 97,9 13,9
12 30.9.2022 05:30 1 0 100 12,9
13 30.9.2022 05:00 1 0 100 12,8
14 30.9.2022 04:30 0 0 98,3 13,2
15 30.9.2022 04:00 0 0 96,4 13,4
16 30.9.2022 03:30 5 0 100 13,2
17 30.9.2022 03:00 8 0 100 13,5
18 30.9.2022 02:30 10 0 99,9 13,8
19 30.9.2022 02:00 10 0 99,6 14
20 30.9.2022 01:30 1 0 98,9 14,2
21 30.9.2022 01:00 0 0 100 14
22 30.9.2022 00:30 9 0,8 100 13,7
23 30.9.2022 00:00 10 7,4 100 13,6
24 29.9.2022 23:30 10 7,8 100 13,8
25 29.9.2022 23:00 3 4 94,5 14,9
26 29.9.2022 22:30 0 0 95,4 14,9
27 29.9.2022 22:00 3 0 93,8 15
28 29.9.2022 21:30 10 0 91,1 15
29 29.9.2022 21:00 2 0 100 14,1
30 29.9.2022 20:30 4 0 100 14,3
31 29.9.2022 20:00 9 0,2 100 14,4
32 29.9.2022 19:30 10 0 100 14
33 29.9.2022 19:00 10 6,4 100 14,7
34 29.9.2022 18:30 10 0,6 100 15,7
35 29.9.2022 18:00 10 0,4 95 16,7
36 29.9.2022 17:30 0 0 84,2 17,7
37 29.9.2022 17:00 0 0 81,7 18,8
38 29.9.2022 16:30 0 0 76,7 20,6
39 29.9.2022 16:00 0 0 89,5 19,3
40 29.9.2022 15:30 0 0 94,3 17,7
41 29.9.2022 15:00 9 3,4 96,6 15,7
42 29.9.2022 14:30 0 0 78 20
43 29.9.2022 14:00 3 0 85,9 19,3
44 29.9.2022 13:30 4 3 95,6 18,4
45 29.9.2022 13:00 9 0,4 86,4 19,7
46 29.9.2022 12:30 0 0 82 20,4